Station Historical Data
Daily Summary for February 15, 2018 Units:  English    Metric   Both
« Previous Day
Next Day »
Daily Weekly Monthly Yearly Custom
  High: Low: Average:
Temperature: TemperatureF °F 61.6 °F 67.5 °F
Dew Point: DewpointF °F 60.8 °F 62.6 °F
Humidity: Humidity % 66 % 85 %
Wind Speed: WindSpeedMPH mph 0.0 mph 5.7 mph
Wind Gust: WindSpeedGustMPH mph - -
Wind:- - SSW
Pressure: PressureIn in 29.93 in -
Precipitation: 0.02 in    
Historical Graphs
 
 
Tabular Data for February 15, 2018
Time Temperature Dew Point Pressure Wind Wind Speed Wind Gust Humidity Rainfall Rate (Hourly) solar Conditions
TemperatureF °F DewpointF °F PressureIn in Calm     Humidity % HourlyPrecipIn in SolarRadiationWatts/m^2 W/m2 Conditions
00:03 61.7 °F 60.8 °F 30.14 in West 5.8 mph 5.8 mph 97 % 0.01 in 0.0 W/m2 -RA
00:08 61.7 °F 60.8 °F 30.14 in SSE 3.5 mph 3.5 mph 97 % 0.01 in 0.0 W/m2 -RA
00:13 61.7 °F 60.8 °F 30.14 in SW 4.6 mph 4.6 mph 97 % 0.02 in 0.0 W/m2 -RA
00:18 61.7 °F 61.1 °F 30.14 in West 7.0 mph 7.0 mph 98 % 0.02 in 0.0 W/m2 -RA
00:23 61.7 °F 61.1 °F 30.14 in West 2.3 mph 2.3 mph 98 % 0.02 in 0.0 W/m2 -RA
00:28 61.7 °F 61.1 °F 30.14 in SSE 5.8 mph 5.8 mph 98 % 0.02 in 0.0 W/m2 -RA
00:33 61.6 °F 61.0 °F 30.14 in West 2.3 mph 2.3 mph 98 % 0.02 in 0.0 W/m2 -RA
00:38 61.6 °F 61.0 °F 30.13 in SSW 5.8 mph 5.8 mph 98 % 0.02 in 0.0 W/m2 -RA
00:43 61.6 °F 61.0 °F 30.13 in SSW 9.2 mph 9.2 mph 98 % 0.02 in 0.0 W/m2 -RA
00:48 61.7 °F 61.1 °F 30.13 in WSW 3.5 mph 3.5 mph 98 % 0.02 in 0.0 W/m2 -RA
00:53 61.8 °F 61.2 °F 30.13 in SW 3.5 mph 3.5 mph 98 % 0.02 in 0.0 W/m2 -RA
00:58 61.8 °F 61.2 °F 30.13 in West 3.5 mph 3.5 mph 98 % 0.01 in 0.0 W/m2 -RA
01:03 61.8 °F 61.2 °F 30.13 in West 3.5 mph 3.5 mph 98 % 0.01 in 0.0 W/m2 OVC
01:08 61.9 °F 61.3 °F 30.12 in SE 1.2 mph 1.2 mph 98 % 0.01 in 0.0 W/m2 OVC
01:13 62.0 °F 61.4 °F 30.12 in NNW 5.8 mph 5.8 mph 98 % 0.00 in 0.0 W/m2 OVC
01:18 62.0 °F 61.4 °F 30.12 in South 3.5 mph 3.5 mph 98 % 0.00 in 0.0 W/m2 OVC
01:23 62.0 °F 61.4 °F 30.12 in SE 3.5 mph 3.5 mph 98 % 0.00 in 0.0 W/m2 OVC
01:28 62.1 °F 61.5 °F 30.12 in WSW 2.3 mph 2.3 mph 98 % 0.00 in 0.0 W/m2 OVC
01:33 62.1 °F 61.5 °F 30.12 in South 3.5 mph 3.5 mph 98 % 0.00 in 0.0 W/m2 OVC
01:38 62.2 °F 61.6 °F 30.12 in West 3.5 mph 3.5 mph 98 % 0.00 in 0.0 W/m2 OVC
01:43 62.3 °F 61.7 °F 30.12 in WNW 3.5 mph 3.5 mph 98 % 0.00 in 0.0 W/m2 OVC
01:48 62.4 °F 61.8 °F 30.12 in SSE 5.8 mph 5.8 mph 98 % 0.00 in 0.0 W/m2 OVC
01:53 62.5 °F 61.9 °F 30.12 in SW 3.5 mph 3.5 mph 98 % 0.00 in 0.0 W/m2 OVC
01:58 62.5 °F 61.9 °F 30.12 in SW 3.5 mph 3.5 mph 98 % 0.00 in 0.0 W/m2 OVC
02:03 62.5 °F 61.9 °F 30.12 in SW 2.3 mph 2.3 mph 98 % 0.00 in 0.0 W/m2 OVC
02:08 62.6 °F 62.0 °F 30.12 in West 5.8 mph 5.8 mph 98 % 0.00 in 0.0 W/m2 OVC
02:13 62.7 °F 62.1 °F 30.12 in SSW 3.5 mph 3.5 mph 98 % 0.00 in 0.0 W/m2 OVC
02:18 62.7 °F 62.1 °F 30.12 in WNW 5.8 mph 5.8 mph 98 % 0.00 in 0.0 W/m2 OVC
02:23 62.8 °F 62.2 °F 30.11 in SSW 1.2 mph 1.2 mph 98 % 0.00 in 0.0 W/m2 OVC
02:28 62.8 °F 62.2 °F 30.11 in WSW 5.8 mph 5.8 mph 98 % 0.00 in 0.0 W/m2 OVC
02:33 62.9 °F 62.3 °F 30.11 in North 2.3 mph 2.3 mph 98 % 0.00 in 0.0 W/m2 OVC
02:38 63.0 °F 62.4 °F 30.11 in West 2.3 mph 2.3 mph 98 % 0.00 in 0.0 W/m2 OVC
02:43 63.0 °F 62.4 °F 30.11 in West 3.5 mph 3.5 mph 98 % 0.00 in 0.0 W/m2 OVC
02:48 63.0 °F 62.4 °F 30.11 in WNW 3.5 mph 3.5 mph 98 % 0.00 in 0.0 W/m2 OVC
02:53 63.0 °F 62.4 °F 30.10 in SW 2.3 mph 2.3 mph 98 % 0.00 in 0.0 W/m2 OVC
02:58 63.1 °F 62.5 °F 30.10 in South 2.3 mph 2.3 mph 98 % 0.00 in 0.0 W/m2 OVC
03:03 63.1 °F 62.5 °F 30.10 in SW 2.3 mph 2.3 mph 98 % 0.00 in 0.0 W/m2 OVC
03:08 63.1 °F 62.5 °F 30.10 in SSW 2.3 mph 2.3 mph 98 % 0.00 in 0.0 W/m2 OVC
03:13 63.1 °F 62.5 °F 30.10 in SW 1.2 mph 1.2 mph 98 % 0.00 in 0.0 W/m2 OVC
03:18 63.1 °F 62.5 °F 30.10 in West 1.2 mph 1.2 mph 98 % 0.00 in 0.0 W/m2 OVC
03:23 63.2 °F 62.6 °F 30.10 in WNW 3.5 mph 3.5 mph 98 % 0.00 in 0.0 W/m2 OVC
03:28 63.2 °F 62.6 °F 30.10 in East 3.5 mph 3.5 mph 98 % 0.00 in 0.0 W/m2 OVC
03:34 63.2 °F 62.6 °F 30.10 in West 2.3 mph 2.3 mph 98 % 0.00 in 0.0 W/m2 OVC
03:39 63.2 °F 62.6 °F 30.10 in WNW 2.3 mph 2.3 mph 98 % 0.00 in 0.0 W/m2 OVC
03:44 63.2 °F 62.6 °F 30.10 in West 1.2 mph 1.2 mph 98 % 0.00 in 0.0 W/m2 OVC
03:49 63.2 °F 62.6 °F 30.10 in WSW 2.3 mph 2.3 mph 98 % 0.00 in 0.0 W/m2 OVC
03:54 63.2 °F 62.6 °F 30.10 in SSE 2.3 mph 2.3 mph 98 % 0.00 in 0.0 W/m2 OVC
03:59 63.2 °F 62.6 °F 30.10 in WSW 3.5 mph 3.5 mph 98 % 0.00 in 0.0 W/m2 OVC
04:04 63.2 °F 62.6 °F 30.10 in SSE 1.2 mph 1.4 mph 98 % 0.00 in 0.0 W/m2 OVC
04:09 63.2 °F 62.6 °F 30.10 in South 3.5 mph 3.5 mph 98 % 0.00 in 0.0 W/m2 OVC
04:14 63.1 °F 62.5 °F 30.10 in ESE 3.5 mph 3.5 mph 98 % 0.00 in 0.0 W/m2 OVC
04:19 63.1 °F 62.5 °F 30.10 in Calm   0.1 mph 98 % 0.00 in 0.0 W/m2 OVC
04:24 63.2 °F 62.6 °F 30.10 in WSW 2.3 mph 2.3 mph 98 % 0.00 in 0.0 W/m2 OVC
04:29 63.2 °F 62.6 °F 30.10 in South 3.5 mph 3.5 mph 98 % 0.00 in 0.0 W/m2 OVC
04:34 63.2 °F 62.6 °F 30.10 in South 3.5 mph 3.5 mph 98 % 0.00 in 0.0 W/m2 OVC
04:39 63.1 °F 62.5 °F 30.10 in ESE 3.5 mph 3.5 mph 98 % 0.00 in 0.0 W/m2 OVC
04:44 63.1 °F 62.5 °F 30.10 in West 2.3 mph 2.3 mph 98 % 0.00 in 0.0 W/m2 OVC
04:49 63.1 °F 62.5 °F 30.10 in ESE 3.5 mph 3.5 mph 98 % 0.00 in 0.0 W/m2 OVC
04:54 63.1 °F 62.5 °F 30.10 in West 2.3 mph 2.3 mph 98 % 0.00 in 0.0 W/m2 OVC
04:59 63.1 °F 62.5 °F 30.10 in NE 1.2 mph 1.2 mph 98 % 0.00 in 0.0 W/m2 OVC
05:04 63.2 °F 62.6 °F 30.11 in SSW 2.3 mph 2.3 mph 98 % 0.00 in 0.0 W/m2 OVC
05:09 63.1 °F 62.2 °F 30.11 in WSW 2.3 mph 2.3 mph 97 % 0.00 in 0.0 W/m2 OVC
05:14 63.2 °F 62.3 °F 30.11 in West 3.5 mph 3.5 mph 97 % 0.00 in 0.0 W/m2 OVC
05:19 63.1 °F 62.2 °F 30.10 in South 1.2 mph 1.2 mph 97 % 0.00 in 0.0 W/m2 OVC
05:24 63.1 °F 62.2 °F 30.10 in WSW 1.2 mph 1.2 mph 97 % 0.00 in 0.0 W/m2 OVC
05:29 63.1 °F 62.2 °F 30.10 in Calm     97 % 0.00 in 0.0 W/m2 OVC
05:34 63.1 °F 62.2 °F 30.10 in SW 1.2 mph 1.2 mph 97 % 0.00 in 0.0 W/m2 OVC
05:39 63.1 °F 62.2 °F 30.10 in WNW 3.5 mph 3.5 mph 97 % 0.00 in 0.0 W/m2 OVC
05:44 63.0 °F 62.1 °F 30.10 in South 2.3 mph 2.3 mph 97 % 0.00 in 0.0 W/m2 OVC
05:49 63.1 °F 62.2 °F 30.10 in South 4.6 mph 4.6 mph 97 % 0.00 in 0.0 W/m2 OVC
05:54 63.0 °F 62.1 °F 30.10 in South 1.2 mph 1.2 mph 97 % 0.00 in 0.0 W/m2 OVC
05:59 63.0 °F 62.1 °F 30.10 in South 2.3 mph 2.3 mph 97 % 0.00 in 0.0 W/m2 OVC
06:04 62.8 °F 61.9 °F 30.10 in SE 2.3 mph 2.3 mph 97 % 0.00 in 0.0 W/m2 OVC
06:09 62.9 °F 62.0 °F 30.10 in SSE 3.5 mph 3.5 mph 97 % 0.00 in 0.0 W/m2 OVC
06:14 62.9 °F 62.0 °F 30.10 in SSE 3.5 mph 3.5 mph 97 % 0.00 in 0.0 W/m2 OVC
06:19 62.9 °F 62.0 °F 30.11 in South 2.3 mph 2.3 mph 97 % 0.00 in 0.0 W/m2 OVC
06:24 63.0 °F 62.1 °F 30.11 in WSW 2.3 mph 2.3 mph 97 % 0.00 in 0.0 W/m2 OVC
06:29 63.0 °F 62.1 °F 30.11 in South 3.5 mph 3.5 mph 97 % 0.00 in 0.0 W/m2 OVC
06:34 63.0 °F 62.1 °F 30.11 in West 3.5 mph 3.5 mph 97 % 0.00 in 0.0 W/m2 OVC
06:39 63.0 °F 62.1 °F 30.10 in SSE 2.3 mph 2.3 mph 97 % 0.00 in 0.0 W/m2 OVC
06:44 63.0 °F 62.1 °F 30.11 in SSE 3.5 mph 3.5 mph 97 % 0.00 in 0.0 W/m2 OVC
06:49 63.1 °F 62.2 °F 30.11 in SSE 3.5 mph 3.5 mph 97 % 0.00 in 0.0 W/m2 OVC
06:54 63.1 °F 62.2 °F 30.11 in SSE 3.5 mph 3.5 mph 97 % 0.00 in 5.0 W/m2 OVC
06:59 63.1 °F 62.2 °F 30.11 in SSE 3.5 mph 3.5 mph 97 % 0.00 in 0.0 W/m2 OVC
07:04 63.1 °F 62.2 °F 30.11 in South 3.5 mph 3.5 mph 97 % 0.00 in 5.0 W/m2 BKN
07:09 63.1 °F 62.2 °F 30.11 in SSW 3.5 mph 3.5 mph 97 % 0.00 in 11.0 W/m2 BKN
07:14 63.2 °F 62.3 °F 30.11 in SE 3.5 mph 3.5 mph 97 % 0.00 in 14.0 W/m2 BKN
07:19 63.1 °F 62.2 °F 30.11 in South 3.5 mph 3.5 mph 97 % 0.00 in 19.0 W/m2 BKN
07:24 63.2 °F 62.3 °F 30.10 in SSE 3.5 mph 3.5 mph 97 % 0.00 in 19.0 W/m2 BKN
07:29 63.3 °F 62.4 °F 30.11 in South 3.5 mph 3.5 mph 97 % 0.00 in 16.0 W/m2 BKN
07:34 63.4 °F 62.5 °F 30.10 in SSE 3.5 mph 3.5 mph 97 % 0.00 in 28.0 W/m2 BKN
07:39 63.2 °F 62.0 °F 30.10 in South 3.5 mph 3.5 mph 96 % 0.00 in 26.0 W/m2 BKN
07:44 63.3 °F 62.4 °F 30.10 in SSE 1.2 mph 1.2 mph 97 % 0.00 in 30.0 W/m2 BKN
07:49 63.4 °F 62.2 °F 30.11 in SSW 3.0 mph 3.0 mph 96 % 0.00 in 37.0 W/m2 BKN
07:54 63.6 °F 62.4 °F 30.11 in WNW 2.3 mph 2.3 mph 96 % 0.00 in 46.0 W/m2 BKN
07:59 63.8 °F 62.6 °F 30.11 in WSW 3.5 mph 3.5 mph 96 % 0.00 in 67.0 W/m2 BKN
08:04 64.0 °F 62.8 °F 30.11 in West 1.2 mph 1.2 mph 96 % 0.00 in 65.0 W/m2 BKN
08:09 64.1 °F 62.9 °F 30.10 in South 3.5 mph 3.5 mph 96 % 0.00 in 83.0 W/m2 BKN
08:14 64.4 °F 62.9 °F 30.10 in West 4.6 mph 4.6 mph 95 % 0.00 in 111.0 W/m2 BKN
08:19 64.7 °F 63.2 °F 30.10 in NNW 4.6 mph 4.6 mph 95 % 0.00 in 116.0 W/m2 BKN
08:24 64.9 °F 63.1 °F 30.09 in SE 3.5 mph 3.5 mph 94 % 0.00 in 72.0 W/m2 BKN
08:29 64.8 °F 63.0 °F 30.09 in South 2.3 mph 2.3 mph 94 % 0.00 in 62.0 W/m2 BKN
08:34 64.9 °F 63.1 °F 30.08 in ESE 3.5 mph 3.5 mph 94 % 0.00 in 47.0 W/m2 BKN
08:39 64.9 °F 63.1 °F 30.09 in WNW 3.5 mph 3.5 mph 94 % 0.00 in 53.0 W/m2 BKN
08:44 65.0 °F 62.9 °F 30.09 in West 5.8 mph 5.8 mph 93 % 0.01 in 79.0 W/m2 RA
08:49 65.2 °F 63.1 °F 30.09 in South 6.9 mph 6.9 mph 93 % 0.01 in 100.0 W/m2 RA
08:54 65.5 °F 63.1 °F 30.09 in WSW 3.5 mph 3.5 mph 92 % 0.01 in 116.0 W/m2 BKN
08:59 65.6 °F 63.2 °F 30.08 in West 6.0 mph 6.0 mph 92 % 0.01 in 120.0 W/m2 BKN
09:04 65.9 °F 63.2 °F 30.09 in ENE 10.4 mph 10.4 mph 91 % 0.01 in 137.0 W/m2 OVC
09:09 66.1 °F 63.4 °F 30.09 in South 8.0 mph 8.0 mph 91 % 0.01 in 104.0 W/m2 OVC
09:14 66.4 °F 63.4 °F 30.09 in South 7.0 mph 7.0 mph 90 % 0.01 in 193.0 W/m2 OVC
09:19 66.6 °F 63.6 °F 30.10 in SW 6.9 mph 6.9 mph 90 % 0.01 in 163.0 W/m2 OVC
09:24 66.8 °F 63.5 °F 30.09 in WNW 6.9 mph 6.9 mph 89 % 0.01 in 230.0 W/m2 OVC
09:29 67.1 °F 63.4 °F 30.10 in West 6.9 mph 6.9 mph 88 % 0.01 in 160.0 W/m2 OVC
09:34 67.4 °F 63.7 °F 30.10 in West 2.3 mph 2.3 mph 88 % 0.01 in 146.0 W/m2 OVC
09:39 67.5 °F 63.5 °F 30.09 in South 3.5 mph 3.5 mph 87 % 0.01 in 246.0 W/m2 OVC
09:44 67.8 °F 63.8 °F 30.10 in WSW 5.8 mph 5.8 mph 87 % 0.00 in 151.0 W/m2 OVC
09:49 67.9 °F 63.9 °F 30.10 in West 6.0 mph 6.0 mph 87 % 0.00 in 262.0 W/m2 OVC
09:54 68.1 °F 63.8 °F 30.10 in WSW 9.2 mph 9.2 mph 86 % 0.00 in 230.0 W/m2 OVC
09:59 68.3 °F 63.6 °F 30.10 in SW 6.9 mph 6.9 mph 85 % 0.00 in 155.0 W/m2 OVC
10:04 68.3 °F 63.6 °F 30.10 in SSE 10.4 mph 10.4 mph 85 % 0.00 in 318.0 W/m2 OVC
10:09 68.8 °F 63.8 °F 30.10 in SW 10.4 mph 10.4 mph 84 % 0.00 in 174.0 W/m2 OVC
10:14 68.6 °F 63.9 °F 30.10 in NNE 9.2 mph 9.2 mph 85 % 0.00 in 128.0 W/m2 OVC
10:19 68.4 °F 63.7 °F 30.10 in SW 11.5 mph 11.5 mph 85 % 0.00 in 127.0 W/m2 OVC
10:24 68.3 °F 63.3 °F 30.10 in WNW 9.2 mph 9.2 mph 84 % 0.00 in 120.0 W/m2 OVC
10:29 68.3 °F 63.3 °F 30.09 in WNW 6.9 mph 6.9 mph 84 % 0.00 in 111.0 W/m2 OVC
10:34 68.3 °F 63.6 °F 30.09 in SW 11.5 mph 11.5 mph 85 % 0.00 in 137.0 W/m2 OVC
10:39 68.4 °F 63.7 °F 30.08 in SW 9.0 mph 9.0 mph 85 % 0.00 in 195.0 W/m2 OVC
10:44 68.6 °F 63.6 °F 30.08 in SW 6.9 mph 6.9 mph 84 % 0.00 in 195.0 W/m2 OVC
10:49 68.8 °F 63.8 °F 30.08 in NW 9.2 mph 9.2 mph 84 % 0.00 in 264.0 W/m2 OVC
10:54 69.2 °F 63.8 °F 30.08 in SSW 10.4 mph 10.4 mph 83 % 0.00 in 315.0 W/m2 OVC
10:59 69.5 °F 63.8 °F 30.07 in SW 9.2 mph 9.2 mph 82 % 0.00 in 246.0 W/m2 OVC
11:04 69.6 °F 63.9 °F 30.07 in NW 5.8 mph 5.8 mph 82 % 0.00 in 163.0 W/m2 BKN
11:09 69.7 °F 64.0 °F 30.06 in NW 6.9 mph 6.9 mph 82 % 0.00 in 171.0 W/m2 BKN
11:14 69.8 °F 63.7 °F 30.07 in NW 9.2 mph 9.2 mph 81 % 0.00 in 105.0 W/m2 BKN
11:19 69.5 °F 63.4 °F 30.06 in NW 6.0 mph 6.0 mph 81 % 0.00 in 171.0 W/m2 BKN
11:24 69.5 °F 63.4 °F 30.05 in SW 10.0 mph 10.0 mph 81 % 0.00 in 283.0 W/m2 BKN
11:29 70.3 °F 64.2 °F 30.05 in South 18.4 mph 18.4 mph 81 % 0.00 in 374.0 W/m2 BKN
11:34 71.2 °F 64.4 °F 30.05 in SSE 7.0 mph 7.0 mph 79 % 0.00 in 603.0 W/m2 BKN
11:39 71.7 °F 64.5 °F 30.04 in North 9.2 mph 9.2 mph 78 % 0.00 in 726.0 W/m2 BKN
11:44 72.2 °F 64.6 °F 30.04 in ENE 6.9 mph 6.9 mph 77 % 0.00 in 427.0 W/m2 BKN
11:49 72.2 °F 64.2 °F 30.04 in West 10.4 mph 10.4 mph 76 % 0.00 in 392.0 W/m2 BKN
11:54 72.1 °F 64.1 °F 30.03 in South 10.4 mph 10.4 mph 76 % 0.00 in 763.0 W/m2 BKN
11:59 72.5 °F 64.5 °F 30.04 in WNW 8.1 mph 8.1 mph 76 % 0.00 in 274.0 W/m2 BKN
12:04 72.2 °F 63.8 °F 30.03 in SW 10.4 mph 10.4 mph 75 % 0.00 in 313.0 W/m2 BKN
12:09 72.1 °F 63.7 °F 30.03 in West 11.5 mph 11.5 mph 75 % 0.00 in 265.0 W/m2 BKN
12:14 72.5 °F 64.1 °F 30.02 in NW 11.0 mph 11.0 mph 75 % 0.00 in 290.0 W/m2 BKN
12:19 72.4 °F 63.6 °F 30.03 in SSE 11.5 mph 11.5 mph 74 % 0.00 in 701.0 W/m2 BKN
12:24 72.6 °F 63.8 °F 30.01 in WNW 11.5 mph 11.5 mph 74 % 0.00 in 230.0 W/m2 BKN
12:29 73.0 °F 63.8 °F 30.01 in WNW 11.5 mph 11.5 mph 73 % 0.00 in 715.0 W/m2 BKN
12:34 73.0 °F 64.2 °F 30.01 in SE 8.1 mph 8.1 mph 74 % 0.00 in 700.0 W/m2 BKN
12:39 73.3 °F 63.7 °F 30.01 in WSW 13.8 mph 13.8 mph 72 % 0.00 in 628.0 W/m2 BKN
12:44 73.4 °F 64.2 °F 30.00 in SSE 9.2 mph 9.2 mph 73 % 0.00 in 599.0 W/m2 BKN
12:49 73.7 °F 63.7 °F 30.00 in West 8.1 mph 8.1 mph 71 % 0.00 in 649.0 W/m2 BKN
12:54 73.6 °F 63.6 °F 29.99 in WNW 11.5 mph 11.5 mph 71 % 0.00 in 418.0 W/m2 BKN
12:59 73.2 °F 63.6 °F 29.99 in NW 7.0 mph 7.0 mph 72 % 0.00 in 302.0 W/m2 BKN
13:04 73.1 °F 63.5 °F 29.99 in SSE 10.4 mph 10.4 mph 72 % 0.00 in 288.0 W/m2 BKN
13:09 72.9 °F 63.3 °F 29.98 in WNW 6.9 mph 6.9 mph 72 % 0.00 in 357.0 W/m2 BKN
13:14 73.7 °F 64.1 °F 29.98 in SE 12.7 mph 12.7 mph 72 % 0.00 in 555.0 W/m2 BKN
13:19 74.0 °F 63.6 °F 29.98 in NW 10.4 mph 10.4 mph 70 % 0.00 in 468.0 W/m2 BKN
13:24 74.0 °F 63.6 °F 29.97 in NW 11.5 mph 11.5 mph 70 % 0.00 in 517.0 W/m2 BKN
13:29 74.6 °F 64.2 °F 29.98 in WNW 4.6 mph 4.6 mph 70 % 0.00 in 494.0 W/m2 BKN
13:34 74.2 °F 63.4 °F 29.97 in SW 11.5 mph 11.5 mph 69 % 0.00 in 316.0 W/m2 BKN
13:39 74.0 °F 63.2 °F 29.97 in WNW 6.9 mph 6.9 mph 69 % 0.00 in 253.0 W/m2 BKN
13:44 74.1 °F 63.7 °F 29.97 in WNW 8.1 mph 8.1 mph 70 % 0.00 in 369.0 W/m2 BKN
13:49 74.5 °F 63.7 °F 29.97 in NE 10.4 mph 10.4 mph 69 % 0.00 in 473.0 W/m2 BKN
13:54 74.4 °F 63.6 °F 29.96 in West 9.2 mph 9.2 mph 69 % 0.00 in 381.0 W/m2 BKN
13:59 74.5 °F 63.7 °F 29.96 in WSW 10.4 mph 10.4 mph 69 % 0.00 in 308.0 W/m2 BKN
14:04 74.2 °F 63.0 °F 29.96 in West 9.2 mph 9.2 mph 68 % 0.00 in 258.0 W/m2 SCT
14:09 74.3 °F 63.9 °F 29.96 in SW 9.2 mph 9.2 mph 70 % 0.00 in 432.0 W/m2 SCT
14:14 74.8 °F 63.9 °F 29.96 in ENE 10.4 mph 10.4 mph 69 % 0.00 in 540.0 W/m2 SCT
14:19 75.5 °F 64.2 °F 29.96 in West 6.9 mph 6.9 mph 68 % 0.00 in 471.0 W/m2 SCT
14:24 75.5 °F 63.8 °F 29.96 in West 11.5 mph 11.5 mph 67 % 0.00 in 411.0 W/m2 SCT
14:29 75.1 °F 63.8 °F 29.96 in WNW 10.4 mph 10.4 mph 68 % 0.00 in 462.0 W/m2 SCT
14:35 75.2 °F 63.9 °F 29.96 in WSW 10.4 mph 10.4 mph 68 % 0.00 in 190.0 W/m2 SCT
14:40 74.7 °F 63.0 °F 29.96 in South 6.9 mph 6.9 mph 67 % 0.00 in 214.0 W/m2 SCT
14:45 74.6 °F 63.3 °F 29.96 in West 9.2 mph 9.2 mph 68 % 0.00 in 362.0 W/m2 SCT
14:50 74.3 °F 63.5 °F 29.96 in West 4.6 mph 4.6 mph 69 % 0.00 in 325.0 W/m2 SCT
14:55 74.8 °F 63.9 °F 29.96 in SSE 4.6 mph 4.6 mph 69 % 0.00 in 441.0 W/m2 SCT
15:00 75.0 °F 63.7 °F 29.95 in SW 6.9 mph 6.9 mph 68 % 0.00 in 248.0 W/m2 SCT
15:05 74.9 °F 63.6 °F 29.95 in North 6.9 mph 6.9 mph 68 % 0.00 in 480.0 W/m2 SCT
15:10 75.4 °F 63.7 °F 29.95 in SW 6.9 mph 6.9 mph 67 % 0.00 in 446.0 W/m2 SCT
15:15 76.1 °F 64.3 °F 29.95 in WSW 5.8 mph 5.8 mph 67 % 0.00 in 425.0 W/m2 SCT
15:20 75.6 °F 63.4 °F 29.95 in West 12.7 mph 12.7 mph 66 % 0.00 in 125.0 W/m2 SCT
15:25 75.5 °F 63.8 °F 29.94 in West 5.8 mph 5.8 mph 67 % 0.00 in 309.0 W/m2 SCT
15:30 75.5 °F 63.8 °F 29.94 in SSE 5.8 mph 5.8 mph 67 % 0.00 in 348.0 W/m2 SCT
15:35 75.0 °F 63.7 °F 29.94 in WNW 3.5 mph 3.5 mph 68 % 0.00 in 221.0 W/m2 SCT
15:40 74.5 °F 63.2 °F 29.94 in ESE 7.0 mph 7.0 mph 68 % 0.00 in 88.0 W/m2 SCT
15:45 74.1 °F 63.7 °F 29.94 in ESE 5.8 mph 5.8 mph 70 % 0.00 in 127.0 W/m2 SCT
15:50 74.3 °F 63.5 °F 29.94 in West 4.6 mph 4.6 mph 69 % 0.00 in 88.0 W/m2 SCT
15:55 74.4 °F 63.1 °F 29.94 in WSW 8.1 mph 8.1 mph 68 % 0.00 in 107.0 W/m2 SCT
16:00 74.1 °F 63.3 °F 29.94 in South 6.9 mph 6.9 mph 69 % 0.00 in 95.0 W/m2 SCT
16:05 73.7 °F 63.3 °F 29.95 in SW 3.5 mph 3.5 mph 70 % 0.00 in 72.0 W/m2 BKN
16:10 73.6 °F 62.8 °F 29.95 in South 13.0 mph 13.0 mph 69 % 0.00 in 91.0 W/m2 BKN
16:15 73.5 °F 62.7 °F 29.95 in WNW 9.2 mph 9.2 mph 69 % 0.00 in 53.0 W/m2 BKN
16:20 73.3 °F 62.5 °F 29.95 in SE 9.2 mph 9.2 mph 69 % 0.00 in 58.0 W/m2 BKN
16:25 73.3 °F 62.5 °F 29.95 in South 11.5 mph 11.5 mph 69 % 0.00 in 62.0 W/m2 BKN
16:30 73.1 °F 62.7 °F 29.95 in WSW 9.0 mph 9.0 mph 70 % 0.00 in 49.0 W/m2 BKN
16:35 73.0 °F 62.6 °F 29.95 in West 6.0 mph 6.0 mph 70 % 0.00 in 47.0 W/m2 BKN
16:40 72.9 °F 62.5 °F 29.95 in SSE 4.6 mph 4.6 mph 70 % 0.00 in 37.0 W/m2 BKN
16:45 72.6 °F 62.7 °F 29.95 in South 9.2 mph 9.2 mph 71 % 0.00 in 25.0 W/m2 BKN
16:50 72.5 °F 62.6 °F 29.95 in WNW 3.5 mph 3.5 mph 71 % 0.00 in 19.0 W/m2 BKN
16:55 72.3 °F 62.4 °F 29.95 in South 10.4 mph 10.4 mph 71 % 0.00 in 19.0 W/m2 BKN
17:00 72.3 °F 62.4 °F 29.95 in ENE 5.8 mph 5.8 mph 71 % 0.00 in 21.0 W/m2 BKN
17:05 72.1 °F 62.6 °F 29.95 in SW 11.5 mph 11.5 mph 72 % 0.00 in 19.0 W/m2 CLR
17:10 72.0 °F 62.5 °F 29.95 in ESE 5.8 mph 5.8 mph 72 % 0.00 in 14.0 W/m2 CLR
17:15 71.6 °F 62.5 °F 29.95 in WNW 5.8 mph 5.8 mph 73 % 0.00 in 11.0 W/m2 CLR
17:20 71.4 °F 62.3 °F 29.95 in SW 5.8 mph 5.8 mph 73 % 0.00 in 7.0 W/m2 CLR
17:25 71.1 °F 62.4 °F 29.95 in ESE 3.5 mph 3.5 mph 74 % 0.00 in 0.0 W/m2 CLR
17:30 71.0 °F 62.3 °F 29.95 in SSE 4.0 mph 4.0 mph 74 % 0.00 in 0.0 W/m2 CLR
17:35 70.6 °F 62.3 °F 29.95 in South 4.6 mph 4.6 mph 75 % 0.00 in 0.0 W/m2 CLR
17:40 70.4 °F 62.1 °F 29.94 in NNE 6.9 mph 6.9 mph 75 % 0.00 in 0.0 W/m2 CLR
17:45 70.3 °F 62.4 °F 29.94 in SSW 6.9 mph 6.9 mph 76 % 0.00 in 0.0 W/m2 CLR
17:50 70.3 °F 62.4 °F 29.94 in NE 4.6 mph 4.6 mph 76 % 0.00 in 0.0 W/m2 CLR
17:55 70.2 °F 62.3 °F 29.94 in SE 3.5 mph 3.5 mph 76 % 0.00 in 0.0 W/m2 CLR
18:00 70.1 °F 62.2 °F 29.94 in WNW 6.9 mph 6.9 mph 76 % 0.00 in 0.0 W/m2 CLR
18:05 70.0 °F 62.5 °F 29.94 in SSE 8.1 mph 8.1 mph 77 % 0.00 in 0.0 W/m2 CLR
18:10 69.9 °F 62.4 °F 29.94 in SSE 10.4 mph 10.4 mph 77 % 0.00 in 0.0 W/m2 CLR
18:15 69.8 °F 62.3 °F 29.94 in SSE 10.4 mph 10.4 mph 77 % 0.00 in 0.0 W/m2 CLR
18:20 69.9 °F 62.4 °F 29.94 in SSE 3.5 mph 3.5 mph 77 % 0.00 in 0.0 W/m2 CLR
18:25 69.8 °F 62.3 °F 29.94 in West 6.0 mph 6.0 mph 77 % 0.00 in 0.0 W/m2 CLR
18:30 69.8 °F 62.3 °F 29.94 in WSW 3.5 mph 3.5 mph 77 % 0.00 in 0.0 W/m2 CLR
18:35 69.7 °F 62.2 °F 29.94 in SSE 6.0 mph 6.0 mph 77 % 0.00 in 0.0 W/m2 CLR
18:40 69.6 °F 62.4 °F 29.94 in WNW 5.8 mph 5.8 mph 78 % 0.00 in 0.0 W/m2 CLR
18:45 69.5 °F 62.3 °F 29.94 in SSE 8.1 mph 8.1 mph 78 % 0.00 in 0.0 W/m2 CLR
18:50 69.6 °F 62.4 °F 29.94 in SSE 3.5 mph 3.5 mph 78 % 0.00 in 0.0 W/m2 CLR
18:55 69.5 °F 62.3 °F 29.94 in WSW 6.0 mph 6.0 mph 78 % 0.00 in 0.0 W/m2 CLR
19:00 69.4 °F 62.6 °F 29.94 in SSE 3.5 mph 3.5 mph 79 % 0.00 in 0.0 W/m2 CLR
19:05 69.3 °F 62.5 °F 29.94 in SSE 5.8 mph 5.8 mph 79 % 0.00 in 0.0 W/m2 CLR
19:10 69.1 °F 62.7 °F 29.94 in SSE 5.8 mph 5.8 mph 80 % 0.00 in 0.0 W/m2 CLR
19:15 69.0 °F 62.6 °F 29.94 in NNE 3.5 mph 3.5 mph 80 % 0.00 in 0.0 W/m2 CLR
19:20 69.1 °F 62.7 °F 29.94 in SSE 6.9 mph 6.9 mph 80 % 0.00 in 0.0 W/m2 CLR
19:25 69.0 °F 62.6 °F 29.94 in SSW 5.8 mph 5.8 mph 80 % 0.00 in 0.0 W/m2 CLR
19:30 69.0 °F 62.9 °F 29.94 in SSE 6.9 mph 6.9 mph 81 % 0.00 in 0.0 W/m2 CLR
19:35 69.0 °F 62.9 °F 29.94 in SW 8.1 mph 8.1 mph 81 % 0.00 in 0.0 W/m2 CLR
19:40 68.9 °F 62.8 °F 29.94 in South 3.5 mph 3.5 mph 81 % 0.00 in 0.0 W/m2 CLR
19:45 68.8 °F 62.7 °F 29.94 in WNW 3.5 mph 3.5 mph 81 % 0.00 in 0.0 W/m2 CLR
19:50 68.8 °F 62.7 °F 29.95 in SSE 5.8 mph 5.8 mph 81 % 0.00 in 0.0 W/m2 CLR
19:55 68.6 °F 62.5 °F 29.94 in ESE 10.4 mph 10.4 mph 81 % 0.00 in 0.0 W/m2 CLR
20:00 68.7 °F 62.6 °F 29.94 in West 5.8 mph 5.8 mph 81 % 0.00 in 0.0 W/m2 CLR
20:05 68.7 °F 62.6 °F 29.94 in South 4.6 mph 4.6 mph 81 % 0.00 in 0.0 W/m2 CLR
20:10 68.8 °F 62.7 °F 29.94 in South 5.8 mph 5.8 mph 81 % 0.00 in 0.0 W/m2 CLR
20:15 68.9 °F 62.8 °F 29.94 in NNW 8.1 mph 8.1 mph 81 % 0.00 in 0.0 W/m2 CLR
20:20 68.9 °F 62.8 °F 29.94 in South 6.9 mph 6.9 mph 81 % 0.00 in 0.0 W/m2 CLR
20:25 68.7 °F 62.6 °F 29.94 in WSW 5.8 mph 5.8 mph 81 % 0.00 in 0.0 W/m2 CLR
20:30 68.6 °F 62.9 °F 29.94 in ENE 3.5 mph 3.5 mph 82 % 0.00 in 0.0 W/m2 CLR
20:35 68.5 °F 62.8 °F 29.94 in East 6.9 mph 6.9 mph 82 % 0.00 in 0.0 W/m2 CLR
20:40 68.5 °F 62.8 °F 29.94 in SSE 10.0 mph 10.0 mph 82 % 0.00 in 0.0 W/m2 CLR
20:45 68.5 °F 62.8 °F 29.94 in West 4.0 mph 4.0 mph 82 % 0.00 in 0.0 W/m2 CLR
20:50 68.5 °F 62.8 °F 29.94 in ESE 5.8 mph 5.8 mph 82 % 0.00 in 0.0 W/m2 CLR
20:55 68.4 °F 62.7 °F 29.94 in WNW 4.6 mph 4.6 mph 82 % 0.00 in 0.0 W/m2 CLR
21:00 68.5 °F 62.8 °F 29.94 in SE 8.1 mph 8.1 mph 82 % 0.00 in 0.0 W/m2 CLR
21:05 68.4 °F 63.0 °F 29.95 in WNW 3.5 mph 3.5 mph 83 % 0.00 in 0.0 W/m2 CLR
21:10 68.3 °F 62.9 °F 29.95 in SSE 8.1 mph 8.1 mph 83 % 0.00 in 0.0 W/m2 CLR
21:15 68.3 °F 62.9 °F 29.95 in South 4.6 mph 4.6 mph 83 % 0.00 in 0.0 W/m2 CLR
21:20 68.2 °F 62.8 °F 29.94 in NE 8.1 mph 8.1 mph 83 % 0.00 in 0.0 W/m2 CLR
21:25 68.3 °F 62.9 °F 29.94 in WNW 3.5 mph 3.5 mph 83 % 0.00 in 0.0 W/m2 CLR
21:30 68.1 °F 62.7 °F 29.95 in WSW 7.0 mph 7.0 mph 83 % 0.00 in 0.0 W/m2 CLR
21:35 68.0 °F 62.6 °F 29.94 in SSE 3.5 mph 3.5 mph 83 % 0.00 in 0.0 W/m2 CLR
21:40 68.0 °F 63.0 °F 29.94 in SSE 3.5 mph 3.5 mph 84 % 0.00 in 0.0 W/m2 CLR
21:45 67.9 °F 62.9 °F 29.94 in WSW 3.5 mph 3.5 mph 84 % 0.00 in 0.0 W/m2 CLR
21:50 67.8 °F 62.8 °F 29.94 in NW 4.6 mph 4.6 mph 84 % 0.00 in 0.0 W/m2 CLR
21:55 67.8 °F 62.8 °F 29.94 in South 3.5 mph 3.5 mph 84 % 0.00 in 0.0 W/m2 CLR
22:00 67.8 °F 62.8 °F 29.94 in SSE 4.6 mph 4.6 mph 84 % 0.00 in 0.0 W/m2 BKN
22:05 67.9 °F 62.9 °F 29.94 in ESE 3.5 mph 3.5 mph 84 % 0.00 in 0.0 W/m2 BKN
22:10 67.8 °F 62.8 °F 29.93 in North 9.2 mph 9.2 mph 84 % 0.00 in 0.0 W/m2 BKN
22:15 67.9 °F 62.9 °F 29.94 in ESE 8.1 mph 8.1 mph 84 % 0.00 in 0.0 W/m2 BKN
22:20 68.0 °F 63.0 °F 29.94 in ESE 5.8 mph 5.8 mph 84 % 0.00 in 0.0 W/m2 BKN
22:25 67.8 °F 62.8 °F 29.94 in NE 3.5 mph 3.5 mph 84 % 0.00 in 0.0 W/m2 BKN
22:30 67.8 °F 63.1 °F 29.94 in ESE 3.5 mph 3.5 mph 85 % 0.00 in 0.0 W/m2 BKN
22:35 67.8 °F 63.1 °F 29.94 in NNW 3.5 mph 3.5 mph 85 % 0.00 in 0.0 W/m2 BKN
22:40 67.9 °F 63.2 °F 29.94 in SSW 4.6 mph 4.6 mph 85 % 0.00 in 0.0 W/m2 BKN
22:45 67.9 °F 63.2 °F 29.94 in WSW 8.1 mph 8.1 mph 85 % 0.00 in 0.0 W/m2 BKN
22:50 68.0 °F 63.0 °F 29.94 in WNW 10.4 mph 10.4 mph 84 % 0.00 in 0.0 W/m2 BKN
22:55 68.1 °F 63.1 °F 29.94 in WNW 5.8 mph 5.8 mph 84 % 0.00 in 0.0 W/m2 BKN
23:00 68.0 °F 63.0 °F 29.94 in NW 3.5 mph 3.5 mph 84 % 0.00 in 0.0 W/m2 OVC
23:05 68.1 °F 63.1 °F 29.94 in West 4.6 mph 4.6 mph 84 % 0.00 in 0.0 W/m2 OVC
23:10 68.2 °F 63.2 °F 29.93 in SW 3.5 mph 3.5 mph 84 % 0.00 in 0.0 W/m2 OVC
23:15 68.1 °F 63.1 °F 29.93 in WSW 5.8 mph 5.8 mph 84 % 0.00 in 0.0 W/m2 OVC
23:20 68.1 °F 63.1 °F 29.93 in West 3.5 mph 3.5 mph 84 % 0.00 in 0.0 W/m2 OVC
23:25 68.0 °F 63.0 °F 29.93 in SSE 3.5 mph 3.5 mph 84 % 0.00 in 0.0 W/m2 OVC
23:30 67.9 °F 62.9 °F 29.93 in SSW 3.5 mph 3.5 mph 84 % 0.00 in 0.0 W/m2 OVC
23:35 67.9 °F 63.2 °F 29.94 in SSW 3.5 mph 3.5 mph 85 % 0.00 in 0.0 W/m2 OVC
23:40 67.9 °F 63.2 °F 29.94 in WNW 3.5 mph 3.5 mph 85 % 0.00 in 0.0 W/m2 OVC
23:45 67.9 °F 62.9 °F 29.94 in SSE 5.8 mph 5.8 mph 84 % 0.00 in 0.0 W/m2 OVC
23:50 67.9 °F 63.2 °F 29.94 in West 4.0 mph 4.0 mph 85 % 0.00 in 0.0 W/m2 OVC
23:55 67.9 °F 62.9 °F 29.93 in WNW 5.8 mph 5.8 mph 84 % 0.00 in 0.0 W/m2 OVC
Murfreesboro Weather Live
Compliments of Weather Underground - 2.25 mb